sensor_id;sensor_type;location;lat;lon;timestamp;P1;durP1;ratioP1;P2;durP2;ratioP2
21107;SDS011;10712;52.944;9.098;2023-04-28T00:01:42;12.60;;;8.65;;
21107;SDS011;10712;52.944;9.098;2023-04-28T00:04:09;11.73;;;8.77;;
21107;SDS011;10712;52.944;9.098;2023-04-28T00:06:35;13.52;;;9.13;;
21107;SDS011;10712;52.944;9.098;2023-04-28T00:09:03;11.90;;;8.50;;
21107;SDS011;10712;52.944;9.098;2023-04-28T00:11:29;12.30;;;7.70;;
21107;SDS011;10712;52.944;9.098;2023-04-28T00:13:55;12.88;;;7.55;;
21107;SDS011;10712;52.944;9.098;2023-04-28T00:16:21;12.25;;;8.35;;
21107;SDS011;10712;52.944;9.098;2023-04-28T00:18:46;11.55;;;8.48;;
21107;SDS011;10712;52.944;9.098;2023-04-28T00:21:12;13.52;;;7.88;;
21107;SDS011;10712;52.944;9.098;2023-04-28T00:23:38;10.40;;;8.07;;
21107;SDS011;10712;52.944;9.098;2023-04-28T00:26:03;10.15;;;8.35;;
21107;SDS011;10712;52.944;9.098;2023-04-28T00:28:30;11.13;;;9.25;;
21107;SDS011;10712;52.944;9.098;2023-04-28T00:30:55;10.00;;;9.00;;
21107;SDS011;10712;52.944;9.098;2023-04-28T00:33:21;10.52;;;7.95;;
21107;SDS011;10712;52.944;9.098;2023-04-28T00:35:48;10.43;;;8.65;;
21107;SDS011;10712;52.944;9.098;2023-04-28T00:38:14;10.23;;;8.35;;
21107;SDS011;10712;52.944;9.098;2023-04-28T00:40:40;11.23;;;8.07;;
21107;SDS011;10712;52.944;9.098;2023-04-28T00:43:06;11.85;;;9.18;;
21107;SDS011;10712;52.944;9.098;2023-04-28T00:45:31;13.50;;;9.93;;
21107;SDS011;10712;52.944;9.098;2023-04-28T00:47:58;9.98;;;7.78;;
21107;SDS011;10712;52.944;9.098;2023-04-28T00:50:24;12.98;;;9.70;;
21107;SDS011;10712;52.944;9.098;2023-04-28T00:52:51;11.18;;;8.82;;
21107;SDS011;10712;52.944;9.098;2023-04-28T00:55:17;12.50;;;9.07;;
21107;SDS011;10712;52.944;9.098;2023-04-28T00:57:44;13.80;;;9.27;;
21107;SDS011;10712;52.944;9.098;2023-04-28T01:00:11;10.25;;;8.65;;
21107;SDS011;10712;52.944;9.098;2023-04-28T01:02:39;12.60;;;9.63;;
21107;SDS011;10712;52.944;9.098;2023-04-28T01:05:05;10.75;;;9.00;;
21107;SDS011;10712;52.944;9.098;2023-04-28T01:07:33;11.07;;;8.55;;
21107;SDS011;10712;52.944;9.098;2023-04-28T01:10:00;12.13;;;7.80;;
21107;SDS011;10712;52.944;9.098;2023-04-28T01:12:30;11.25;;;8.95;;
21107;SDS011;10712;52.944;9.098;2023-04-28T01:14:57;10.40;;;8.60;;
21107;SDS011;10712;52.944;9.098;2023-04-28T01:17:24;9.63;;;8.43;;
21107;SDS011;10712;52.944;9.098;2023-04-28T01:19:50;12.40;;;9.18;;
21107;SDS011;10712;52.944;9.098;2023-04-28T01:22:17;12.18;;;8.50;;
21107;SDS011;10712;52.944;9.098;2023-04-28T01:24:44;13.88;;;9.32;;
21107;SDS011;10712;52.944;9.098;2023-04-28T01:27:12;11.32;;;8.55;;
21107;SDS011;10712;52.944;9.098;2023-04-28T01:29:39;10.63;;;8.38;;
21107;SDS011;10712;52.944;9.098;2023-04-28T01:32:05;10.23;;;7.93;;
21107;SDS011;10712;52.944;9.098;2023-04-28T01:34:32;9.85;;;8.40;;
21107;SDS011;10712;52.944;9.098;2023-04-28T01:36:58;9.30;;;7.88;;
21107;SDS011;10712;52.944;9.098;2023-04-28T01:39:25;11.65;;;7.78;;
21107;SDS011;10712;52.944;9.098;2023-04-28T01:41:50;13.05;;;8.60;;
21107;SDS011;10712;52.944;9.098;2023-04-28T01:44:16;13.32;;;8.70;;
21107;SDS011;10712;52.944;9.098;2023-04-28T01:46:42;10.32;;;7.88;;
21107;SDS011;10712;52.944;9.098;2023-04-28T01:49:08;9.88;;;8.00;;
21107;SDS011;10712;52.944;9.098;2023-04-28T01:51:33;12.85;;;7.88;;
21107;SDS011;10712;52.944;9.098;2023-04-28T01:54:00;10.73;;;8.20;;
21107;SDS011;10712;52.944;9.098;2023-04-28T01:56:27;12.02;;;7.47;;
21107;SDS011;10712;52.944;9.098;2023-04-28T01:58:55;13.80;;;7.63;;
21107;SDS011;10712;52.944;9.098;2023-04-28T02:01:21;9.95;;;6.80;;
21107;SDS011;10712;52.944;9.098;2023-04-28T02:03:48;8.90;;;6.47;;
21107;SDS011;10712;52.944;9.098;2023-04-28T02:06:14;11.85;;;7.28;;
21107;SDS011;10712;52.944;9.098;2023-04-28T02:08:40;8.02;;;6.10;;
21107;SDS011;10712;52.944;9.098;2023-04-28T02:11:06;9.20;;;7.03;;
21107;SDS011;10712;52.944;9.098;2023-04-28T02:13:31;7.47;;;6.43;;
21107;SDS011;10712;52.944;9.098;2023-04-28T02:16:00;8.82;;;6.57;;
21107;SDS011;10712;52.944;9.098;2023-04-28T02:18:26;9.55;;;7.03;;
21107;SDS011;10712;52.944;9.098;2023-04-28T02:20:52;9.82;;;7.10;;
21107;SDS011;10712;52.944;9.098;2023-04-28T02:23:18;7.82;;;6.53;;
21107;SDS011;10712;52.944;9.098;2023-04-28T02:25:44;9.30;;;6.80;;
21107;SDS011;10712;52.944;9.098;2023-04-28T02:28:11;8.23;;;6.53;;
21107;SDS011;10712;52.944;9.098;2023-04-28T02:30:37;7.75;;;6.10;;
21107;SDS011;10712;52.944;9.098;2023-04-28T02:33:03;7.82;;;6.15;;
21107;SDS011;10712;52.944;9.098;2023-04-28T02:35:29;8.18;;;6.20;;
21107;SDS011;10712;52.944;9.098;2023-04-28T02:37:56;7.57;;;6.00;;
21107;SDS011;10712;52.944;9.098;2023-04-28T02:40:21;8.57;;;5.70;;
21107;SDS011;10712;52.944;9.098;2023-04-28T02:42:47;8.77;;;5.47;;
21107;SDS011;10712;52.944;9.098;2023-04-28T02:45:13;6.13;;;5.53;;
21107;SDS011;10712;52.944;9.098;2023-04-28T02:47:39;8.00;;;5.07;;
21107;SDS011;10712;52.944;9.098;2023-04-28T02:50:05;6.57;;;5.05;;
21107;SDS011;10712;52.944;9.098;2023-04-28T02:52:32;8.18;;;5.53;;
21107;SDS011;10712;52.944;9.098;2023-04-28T02:54:58;11.50;;;5.88;;
21107;SDS011;10712;52.944;9.098;2023-04-28T02:57:24;8.38;;;5.38;;
21107;SDS011;10712;52.944;9.098;2023-04-28T02:59:50;5.85;;;5.00;;
21107;SDS011;10712;52.944;9.098;2023-04-28T03:02:15;5.57;;;4.70;;
21107;SDS011;10712;52.944;9.098;2023-04-28T03:04:41;6.10;;;5.15;;
21107;SDS011;10712;52.944;9.098;2023-04-28T03:07:07;6.60;;;4.63;;
21107;SDS011;10712;52.944;9.098;2023-04-28T03:09:35;7.80;;;4.85;;
21107;SDS011;10712;52.944;9.098;2023-04-28T03:12:01;6.25;;;4.13;;
21107;SDS011;10712;52.944;9.098;2023-04-28T03:14:28;5.03;;;4.10;;
21107;SDS011;10712;52.944;9.098;2023-04-28T03:16:55;7.47;;;5.25;;
21107;SDS011;10712;52.944;9.098;2023-04-28T03:19:22;7.60;;;4.93;;
21107;SDS011;10712;52.944;9.098;2023-04-28T03:21:47;7.20;;;4.53;;
21107;SDS011;10712;52.944;9.098;2023-04-28T03:24:13;7.70;;;4.90;;
21107;SDS011;10712;52.944;9.098;2023-04-28T03:26:39;4.97;;;4.50;;
21107;SDS011;10712;52.944;9.098;2023-04-28T03:29:05;9.68;;;4.63;;
21107;SDS011;10712;52.944;9.098;2023-04-28T03:31:31;5.63;;;4.57;;
21107;SDS011;10712;52.944;9.098;2023-04-28T03:33:56;7.60;;;4.88;;
21107;SDS011;10712;52.944;9.098;2023-04-28T03:36:23;6.35;;;4.40;;
21107;SDS011;10712;52.944;9.098;2023-04-28T03:38:53;5.90;;;4.90;;
21107;SDS011;10712;52.944;9.098;2023-04-28T03:41:18;5.25;;;4.65;;
21107;SDS011;10712;52.944;9.098;2023-04-28T03:44:10;5.15;;;4.18;;
21107;SDS011;10712;52.944;9.098;2023-04-28T03:46:44;5.35;;;4.10;;
21107;SDS011;10712;52.944;9.098;2023-04-28T03:49:10;4.70;;;4.20;;
21107;SDS011;10712;52.944;9.098;2023-04-28T03:51:36;5.78;;;4.72;;
21107;SDS011;10712;52.944;9.098;2023-04-28T03:54:03;5.05;;;4.18;;
21107;SDS011;10712;52.944;9.098;2023-04-28T03:56:30;5.00;;;3.72;;
21107;SDS011;10712;52.944;9.098;2023-04-28T03:58:56;5.00;;;4.47;;
21107;SDS011;10712;52.944;9.098;2023-04-28T04:01:22;5.90;;;4.47;;
21107;SDS011;10712;52.944;9.098;2023-04-28T04:03:48;5.28;;;4.05;;
21107;SDS011;10712;52.944;9.098;2023-04-28T04:06:16;6.78;;;4.95;;
21107;SDS011;10712;52.944;9.098;2023-04-28T04:08:42;5.20;;;4.28;;
21107;SDS011;10712;52.944;9.098;2023-04-28T04:11:08;7.85;;;4.43;;
21107;SDS011;10712;52.944;9.098;2023-04-28T04:13:34;4.85;;;4.38;;
21107;SDS011;10712;52.944;9.098;2023-04-28T04:16:03;5.60;;;4.63;;
21107;SDS011;10712;52.944;9.098;2023-04-28T04:18:30;7.35;;;4.28;;
21107;SDS011;10712;52.944;9.098;2023-04-28T04:23:38;4.18;;;3.60;;
21107;SDS011;10712;52.944;9.098;2023-04-28T04:26:04;4.30;;;3.90;;
21107;SDS011;10712;52.944;9.098;2023-04-28T04:28:30;6.07;;;3.85;;
21107;SDS011;10712;52.944;9.098;2023-04-28T04:30:56;5.93;;;4.10;;
21107;SDS011;10712;52.944;9.098;2023-04-28T04:33:22;4.03;;;3.42;;
21107;SDS011;10712;52.944;9.098;2023-04-28T04:35:48;6.45;;;4.45;;
21107;SDS011;10712;52.944;9.098;2023-04-28T04:38:14;5.20;;;3.75;;
21107;SDS011;10712;52.944;9.098;2023-04-28T04:40:41;6.18;;;4.60;;
21107;SDS011;10712;52.944;9.098;2023-04-28T04:43:07;6.53;;;3.97;;
21107;SDS011;10712;52.944;9.098;2023-04-28T04:45:41;5.97;;;3.80;;
21107;SDS011;10712;52.944;9.098;2023-04-28T04:48:08;6.20;;;4.18;;
21107;SDS011;10712;52.944;9.098;2023-04-28T04:50:33;6.78;;;4.10;;
21107;SDS011;10712;52.944;9.098;2023-04-28T04:53:00;5.18;;;3.92;;
21107;SDS011;10712;52.944;9.098;2023-04-28T04:55:26;4.32;;;3.35;;
21107;SDS011;10712;52.944;9.098;2023-04-28T04:57:52;5.28;;;3.45;;
21107;SDS011;10712;52.944;9.098;2023-04-28T05:00:36;9.20;;;4.07;;
21107;SDS011;10712;52.944;9.098;2023-04-28T05:03:02;4.18;;;3.38;;
21107;SDS011;10712;52.944;9.098;2023-04-28T05:05:30;4.03;;;2.90;;
21107;SDS011;10712;52.944;9.098;2023-04-28T05:08:27;3.33;;;2.92;;
21107;SDS011;10712;52.944;9.098;2023-04-28T05:10:55;3.53;;;3.20;;
21107;SDS011;10712;52.944;9.098;2023-04-28T05:13:23;2.92;;;2.58;;
21107;SDS011;10712;52.944;9.098;2023-04-28T05:18:39;4.70;;;3.40;;
21107;SDS011;10712;52.944;9.098;2023-04-28T05:21:05;4.10;;;3.20;;
21107;SDS011;10712;52.944;9.098;2023-04-28T05:23:31;6.95;;;3.95;;
21107;SDS011;10712;52.944;9.098;2023-04-28T05:25:57;4.63;;;3.72;;
21107;SDS011;10712;52.944;9.098;2023-04-28T05:28:23;5.38;;;3.85;;
21107;SDS011;10712;52.944;9.098;2023-04-28T05:30:52;6.40;;;3.80;;
21107;SDS011;10712;52.944;9.098;2023-04-28T05:33:18;5.15;;;3.45;;
21107;SDS011;10712;52.944;9.098;2023-04-28T05:35:46;5.43;;;3.80;;
21107;SDS011;10712;52.944;9.098;2023-04-28T05:38:13;6.05;;;3.70;;
21107;SDS011;10712;52.944;9.098;2023-04-28T05:40:41;7.20;;;4.72;;
21107;SDS011;10712;52.944;9.098;2023-04-28T05:43:07;7.60;;;4.43;;
21107;SDS011;10712;52.944;9.098;2023-04-28T05:45:33;9.00;;;3.97;;
21107;SDS011;10712;52.944;9.098;2023-04-28T05:47:59;6.78;;;3.35;;
21107;SDS011;10712;52.944;9.098;2023-04-28T05:50:26;5.47;;;3.63;;
21107;SDS011;10712;52.944;9.098;2023-04-28T05:52:52;3.80;;;2.75;;
21107;SDS011;10712;52.944;9.098;2023-04-28T05:55:18;4.57;;;3.70;;
21107;SDS011;10712;52.944;9.098;2023-04-28T05:57:44;7.43;;;3.88;;
21107;SDS011;10712;52.944;9.098;2023-04-28T06:00:10;6.35;;;3.97;;
21107;SDS011;10712;52.944;9.098;2023-04-28T06:02:39;3.70;;;3.33;;
21107;SDS011;10712;52.944;9.098;2023-04-28T06:05:05;5.80;;;3.65;;
21107;SDS011;10712;52.944;9.098;2023-04-28T06:07:34;5.40;;;3.58;;
21107;SDS011;10712;52.944;9.098;2023-04-28T06:09:59;4.85;;;3.90;;
21107;SDS011;10712;52.944;9.098;2023-04-28T06:12:25;7.60;;;3.95;;
21107;SDS011;10712;52.944;9.098;2023-04-28T06:14:51;4.82;;;3.65;;
21107;SDS011;10712;52.944;9.098;2023-04-28T06:17:19;7.85;;;4.18;;
21107;SDS011;10712;52.944;9.098;2023-04-28T06:19:45;6.97;;;3.58;;
21107;SDS011;10712;52.944;9.098;2023-04-28T06:22:11;5.25;;;3.80;;
21107;SDS011;10712;52.944;9.098;2023-04-28T06:24:37;6.20;;;4.30;;
21107;SDS011;10712;52.944;9.098;2023-04-28T06:27:07;5.53;;;3.70;;
21107;SDS011;10712;52.944;9.098;2023-04-28T06:29:33;5.50;;;4.03;;
21107;SDS011;10712;52.944;9.098;2023-04-28T06:31:58;6.82;;;4.38;;
21107;SDS011;10712;52.944;9.098;2023-04-28T06:34:24;5.50;;;4.18;;
21107;SDS011;10712;52.944;9.098;2023-04-28T06:36:53;7.32;;;4.32;;
21107;SDS011;10712;52.944;9.098;2023-04-28T06:39:20;5.57;;;4.25;;
21107;SDS011;10712;52.944;9.098;2023-04-28T06:41:46;10.70;;;4.40;;
21107;SDS011;10712;52.944;9.098;2023-04-28T06:44:12;6.32;;;4.03;;
21107;SDS011;10712;52.944;9.098;2023-04-28T06:46:38;8.65;;;4.00;;
21107;SDS011;10712;52.944;9.098;2023-04-28T06:49:04;8.55;;;4.25;;
21107;SDS011;10712;52.944;9.098;2023-04-28T06:51:30;9.63;;;4.60;;
21107;SDS011;10712;52.944;9.098;2023-04-28T06:53:59;7.28;;;4.28;;
21107;SDS011;10712;52.944;9.098;2023-04-28T06:56:25;7.28;;;4.32;;
21107;SDS011;10712;52.944;9.098;2023-04-28T06:58:54;7.75;;;4.18;;
21107;SDS011;10712;52.944;9.098;2023-04-28T07:01:23;8.35;;;4.53;;
21107;SDS011;10712;52.944;9.098;2023-04-28T07:03:49;4.90;;;4.20;;
21107;SDS011;10712;52.944;9.098;2023-04-28T07:06:15;7.50;;;4.32;;
21107;SDS011;10712;52.944;9.098;2023-04-28T07:08:42;4.85;;;4.10;;
21107;SDS011;10712;52.944;9.098;2023-04-28T07:11:08;8.35;;;4.80;;
21107;SDS011;10712;52.944;9.098;2023-04-28T07:13:33;8.02;;;4.70;;
21107;SDS011;10712;52.944;9.098;2023-04-28T07:15:59;8.02;;;4.45;;
21107;SDS011;10712;52.944;9.098;2023-04-28T07:18:25;10.25;;;5.18;;
21107;SDS011;10712;52.944;9.098;2023-04-28T07:20:51;10.95;;;4.57;;
21107;SDS011;10712;52.944;9.098;2023-04-28T07:23:17;9.68;;;4.35;;
21107;SDS011;10712;52.944;9.098;2023-04-28T07:25:43;6.72;;;4.47;;
21107;SDS011;10712;52.944;9.098;2023-04-28T07:28:09;7.65;;;4.78;;
21107;SDS011;10712;52.944;9.098;2023-04-28T07:30:35;5.53;;;4.57;;
21107;SDS011;10712;52.944;9.098;2023-04-28T07:33:01;8.77;;;5.15;;
21107;SDS011;10712;52.944;9.098;2023-04-28T07:35:27;9.75;;;5.18;;
21107;SDS011;10712;52.944;9.098;2023-04-28T07:37:53;7.85;;;6.15;;
21107;SDS011;10712;52.944;9.098;2023-04-28T07:40:20;7.57;;;4.88;;
21107;SDS011;10712;52.944;9.098;2023-04-28T07:42:46;12.50;;;5.38;;
21107;SDS011;10712;52.944;9.098;2023-04-28T07:45:12;8.73;;;5.47;;
21107;SDS011;10712;52.944;9.098;2023-04-28T07:47:40;8.70;;;5.22;;
21107;SDS011;10712;52.944;9.098;2023-04-28T07:50:06;7.80;;;5.15;;
21107;SDS011;10712;52.944;9.098;2023-04-28T07:52:33;11.60;;;5.07;;
21107;SDS011;10712;52.944;9.098;2023-04-28T07:54:59;9.07;;;5.72;;
21107;SDS011;10712;52.944;9.098;2023-04-28T07:57:26;12.00;;;5.32;;
21107;SDS011;10712;52.944;9.098;2023-04-28T07:59:53;7.43;;;5.07;;
21107;SDS011;10712;52.944;9.098;2023-04-28T08:02:19;7.25;;;5.72;;
21107;SDS011;10712;52.944;9.098;2023-04-28T08:04:45;6.38;;;5.13;;
21107;SDS011;10712;52.944;9.098;2023-04-28T08:07:12;7.88;;;5.38;;
21107;SDS011;10712;52.944;9.098;2023-04-28T08:09:38;7.63;;;5.22;;
21107;SDS011;10712;52.944;9.098;2023-04-28T08:12:06;10.57;;;6.18;;
21107;SDS011;10712;52.944;9.098;2023-04-28T08:14:32;10.63;;;5.60;;
21107;SDS011;10712;52.944;9.098;2023-04-28T08:16:58;9.63;;;5.90;;
21107;SDS011;10712;52.944;9.098;2023-04-28T08:19:24;6.80;;;5.35;;
21107;SDS011;10712;52.944;9.098;2023-04-28T08:21:50;10.93;;;6.45;;
21107;SDS011;10712;52.944;9.098;2023-04-28T08:24:15;9.43;;;5.75;;
21107;SDS011;10712;52.944;9.098;2023-04-28T08:26:41;9.27;;;5.68;;
21107;SDS011;10712;52.944;9.098;2023-04-28T08:29:08;8.68;;;5.78;;
21107;SDS011;10712;52.944;9.098;2023-04-28T08:31:33;8.00;;;5.25;;
21107;SDS011;10712;52.944;9.098;2023-04-28T08:33:59;10.75;;;5.97;;
21107;SDS011;10712;52.944;9.098;2023-04-28T08:36:25;8.40;;;5.75;;
21107;SDS011;10712;52.944;9.098;2023-04-28T08:38:56;8.93;;;5.63;;
21107;SDS011;10712;52.944;9.098;2023-04-28T08:41:23;5.57;;;4.70;;
21107;SDS011;10712;52.944;9.098;2023-04-28T08:43:54;6.82;;;5.30;;
21107;SDS011;10712;52.944;9.098;2023-04-28T08:46:20;8.38;;;5.00;;
21107;SDS011;10712;52.944;9.098;2023-04-28T08:48:48;13.88;;;5.55;;
21107;SDS011;10712;52.944;9.098;2023-04-28T08:51:15;6.90;;;5.68;;
21107;SDS011;10712;52.944;9.098;2023-04-28T08:53:53;9.02;;;5.90;;
21107;SDS011;10712;52.944;9.098;2023-04-28T08:56:20;12.45;;;6.90;;
21107;SDS011;10712;52.944;9.098;2023-04-28T08:58:51;5.88;;;5.10;;
21107;SDS011;10712;52.944;9.098;2023-04-28T09:01:19;9.07;;;5.55;;
21107;SDS011;10712;52.944;9.098;2023-04-28T09:03:44;11.15;;;6.55;;
21107;SDS011;10712;52.944;9.098;2023-04-28T09:06:11;9.32;;;6.28;;
21107;SDS011;10712;52.944;9.098;2023-04-28T09:08:37;9.18;;;6.07;;
21107;SDS011;10712;52.944;9.098;2023-04-28T09:11:06;10.73;;;6.85;;
21107;SDS011;10712;52.944;9.098;2023-04-28T09:13:34;17.10;;;5.82;;
21107;SDS011;10712;52.944;9.098;2023-04-28T09:16:01;7.22;;;6.18;;
21107;SDS011;10712;52.944;9.098;2023-04-28T09:18:28;8.90;;;5.25;;
21107;SDS011;10712;52.944;9.098;2023-04-28T09:21:07;9.05;;;6.13;;
21107;SDS011;10712;52.944;9.098;2023-04-28T09:23:47;9.60;;;6.70;;
21107;SDS011;10712;52.944;9.098;2023-04-28T09:26:14;10.05;;;6.68;;
21107;SDS011;10712;52.944;9.098;2023-04-28T09:28:40;8.98;;;7.18;;
21107;SDS011;10712;52.944;9.098;2023-04-28T09:31:17;10.15;;;6.57;;
21107;SDS011;10712;52.944;9.098;2023-04-28T09:33:55;9.95;;;6.63;;
21107;SDS011;10712;52.944;9.098;2023-04-28T09:36:26;14.65;;;7.18;;
21107;SDS011;10712;52.944;9.098;2023-04-28T09:38:57;14.90;;;6.97;;
21107;SDS011;10712;52.944;9.098;2023-04-28T09:41:34;15.63;;;7.47;;
21107;SDS011;10712;52.944;9.098;2023-04-28T09:44:08;13.02;;;6.68;;
21107;SDS011;10712;52.944;9.098;2023-04-28T09:46:45;12.27;;;7.30;;
21107;SDS011;10712;52.944;9.098;2023-04-28T09:49:12;8.15;;;6.50;;
21107;SDS011;10712;52.944;9.098;2023-04-28T09:51:38;13.00;;;8.45;;
21107;SDS011;10712;52.944;9.098;2023-04-28T09:54:04;14.40;;;7.53;;
21107;SDS011;10712;52.944;9.098;2023-04-28T09:56:32;12.32;;;8.70;;
21107;SDS011;10712;52.944;9.098;2023-04-28T09:59:02;14.27;;;7.33;;
21107;SDS011;10712;52.944;9.098;2023-04-28T10:01:32;11.30;;;8.05;;
21107;SDS011;10712;52.944;9.098;2023-04-28T10:04:05;10.38;;;8.23;;
21107;SDS011;10712;52.944;9.098;2023-04-28T10:06:34;17.55;;;8.98;;
21107;SDS011;10712;52.944;9.098;2023-04-28T10:09:01;10.38;;;7.78;;
21107;SDS011;10712;52.944;9.098;2023-04-28T10:11:27;10.73;;;7.38;;
21107;SDS011;10712;52.944;9.098;2023-04-28T10:13:54;13.93;;;8.95;;
21107;SDS011;10712;52.944;9.098;2023-04-28T10:16:21;11.38;;;8.50;;
21107;SDS011;10712;52.944;9.098;2023-04-28T10:18:48;10.57;;;7.95;;
21107;SDS011;10712;52.944;9.098;2023-04-28T10:21:17;15.13;;;9.07;;
21107;SDS011;10712;52.944;9.098;2023-04-28T10:29:27;13.77;;;8.55;;
21107;SDS011;10712;52.944;9.098;2023-04-28T10:32:15;12.52;;;9.20;;
21107;SDS011;10712;52.944;9.098;2023-04-28T10:34:50;13.43;;;9.68;;
21107;SDS011;10712;52.944;9.098;2023-04-28T10:37:17;11.32;;;9.77;;
21107;SDS011;10712;52.944;9.098;2023-04-28T10:42:55;18.08;;;10.35;;
21107;SDS011;10712;52.944;9.098;2023-04-28T10:48:21;15.07;;;9.70;;
21107;SDS011;10712;52.944;9.098;2023-04-28T10:56:13;12.38;;;9.15;;
21107;SDS011;10712;52.944;9.098;2023-04-28T11:09:45;13.48;;;8.60;;
21107;SDS011;10712;52.944;9.098;2023-04-28T11:16:57;11.02;;;8.05;;
21107;SDS011;10712;52.944;9.098;2023-04-28T11:19:32;12.25;;;8.43;;
21107;SDS011;10712;52.944;9.098;2023-04-28T11:22:12;15.48;;;9.00;;
21107;SDS011;10712;52.944;9.098;2023-04-28T11:27:26;17.23;;;8.23;;
21107;SDS011;10712;52.944;9.098;2023-04-28T11:29:54;13.40;;;8.45;;
21107;SDS011;10712;52.944;9.098;2023-04-28T11:32:27;12.10;;;7.82;;
21107;SDS011;10712;52.944;9.098;2023-04-28T11:34:58;14.55;;;8.40;;
21107;SDS011;10712;52.944;9.098;2023-04-28T11:37:25;15.05;;;10.32;;
21107;SDS011;10712;52.944;9.098;2023-04-28T11:39:51;17.50;;;8.77;;
21107;SDS011;10712;52.944;9.098;2023-04-28T11:42:17;13.48;;;9.32;;
21107;SDS011;10712;52.944;9.098;2023-04-28T11:44:49;13.70;;;8.93;;
21107;SDS011;10712;52.944;9.098;2023-04-28T11:47:27;13.48;;;8.93;;
21107;SDS011;10712;52.944;9.098;2023-04-28T11:49:55;10.95;;;9.13;;
21107;SDS011;10712;52.944;9.098;2023-04-28T11:52:21;11.02;;;8.15;;
21107;SDS011;10712;52.944;9.098;2023-04-28T11:54:52;13.10;;;8.48;;
21107;SDS011;10712;52.944;9.098;2023-04-28T11:57:23;12.40;;;8.48;;
21107;SDS011;10712;52.944;9.098;2023-04-28T11:59:50;16.55;;;8.95;;
21107;SDS011;10712;52.944;9.098;2023-04-28T12:02:23;16.98;;;8.60;;
21107;SDS011;10712;52.944;9.098;2023-04-28T12:04:55;13.30;;;8.75;;
21107;SDS011;10712;52.944;9.098;2023-04-28T12:07:29;10.70;;;8.73;;
21107;SDS011;10712;52.944;9.098;2023-04-28T12:10:11;10.02;;;7.32;;
21107;SDS011;10712;52.944;9.098;2023-04-28T12:12:42;12.73;;;9.15;;
21107;SDS011;10712;52.944;9.098;2023-04-28T12:15:09;12.90;;;8.85;;
21107;SDS011;10712;52.944;9.098;2023-04-28T12:17:36;13.95;;;8.88;;
21107;SDS011;10712;52.944;9.098;2023-04-28T12:20:04;13.75;;;8.60;;
21107;SDS011;10712;52.944;9.098;2023-04-28T12:22:46;11.93;;;8.52;;
21107;SDS011;10712;52.944;9.098;2023-04-28T12:25:15;11.85;;;7.97;;
21107;SDS011;10712;52.944;9.098;2023-04-28T12:28:02;11.25;;;8.32;;
21107;SDS011;10712;52.944;9.098;2023-04-28T12:30:34;12.00;;;8.77;;
21107;SDS011;10712;52.944;9.098;2023-04-28T12:33:02;15.27;;;7.70;;
21107;SDS011;10712;52.944;9.098;2023-04-28T12:35:29;11.35;;;7.85;;
21107;SDS011;10712;52.944;9.098;2023-04-28T12:37:55;11.85;;;7.78;;
21107;SDS011;10712;52.944;9.098;2023-04-28T12:40:22;12.70;;;8.10;;
21107;SDS011;10712;52.944;9.098;2023-04-28T12:42:48;12.93;;;9.05;;
21107;SDS011;10712;52.944;9.098;2023-04-28T12:45:15;8.52;;;7.63;;
21107;SDS011;10712;52.944;9.098;2023-04-28T12:47:41;10.07;;;8.73;;
21107;SDS011;10712;52.944;9.098;2023-04-28T12:50:07;10.68;;;8.48;;
21107;SDS011;10712;52.944;9.098;2023-04-28T12:52:34;11.73;;;8.82;;
21107;SDS011;10712;52.944;9.098;2023-04-28T12:55:01;9.27;;;7.72;;
21107;SDS011;10712;52.944;9.098;2023-04-28T12:57:28;12.32;;;8.27;;
21107;SDS011;10712;52.944;9.098;2023-04-28T12:59:54;9.43;;;7.63;;
21107;SDS011;10712;52.944;9.098;2023-04-28T13:02:21;10.32;;;7.53;;
21107;SDS011;10712;52.944;9.098;2023-04-28T13:04:47;9.73;;;7.20;;
21107;SDS011;10712;52.944;9.098;2023-04-28T13:07:13;11.88;;;7.85;;
21107;SDS011;10712;52.944;9.098;2023-04-28T13:09:40;10.27;;;7.25;;
21107;SDS011;10712;52.944;9.098;2023-04-28T13:12:09;11.07;;;7.47;;
21107;SDS011;10712;52.944;9.098;2023-04-28T13:14:38;10.18;;;7.72;;
21107;SDS011;10712;52.944;9.098;2023-04-28T13:17:04;11.85;;;7.38;;
21107;SDS011;10712;52.944;9.098;2023-04-28T13:19:30;11.90;;;7.35;;
21107;SDS011;10712;52.944;9.098;2023-04-28T13:21:56;13.93;;;7.35;;
21107;SDS011;10712;52.944;9.098;2023-04-28T13:24:22;10.07;;;7.28;;
21107;SDS011;10712;52.944;9.098;2023-04-28T13:26:48;8.85;;;7.25;;
21107;SDS011;10712;52.944;9.098;2023-04-28T13:29:15;14.48;;;7.28;;
21107;SDS011;10712;52.944;9.098;2023-04-28T13:31:42;11.35;;;6.90;;
21107;SDS011;10712;52.944;9.098;2023-04-28T13:34:08;11.70;;;8.07;;
21107;SDS011;10712;52.944;9.098;2023-04-28T13:39:07;12.25;;;7.20;;
21107;SDS011;10712;52.944;9.098;2023-04-28T13:41:35;10.75;;;6.85;;
21107;SDS011;10712;52.944;9.098;2023-04-28T13:44:02;11.80;;;7.70;;
21107;SDS011;10712;52.944;9.098;2023-04-28T13:46:27;9.50;;;6.43;;
21107;SDS011;10712;52.944;9.098;2023-04-28T13:48:53;9.52;;;5.82;;
21107;SDS011;10712;52.944;9.098;2023-04-28T13:51:19;9.50;;;6.53;;
21107;SDS011;10712;52.944;9.098;2023-04-28T13:53:45;11.27;;;7.28;;
21107;SDS011;10712;52.944;9.098;2023-04-28T13:56:11;10.70;;;7.65;;
21107;SDS011;10712;52.944;9.098;2023-04-28T13:58:37;8.43;;;6.88;;
21107;SDS011;10712;52.944;9.098;2023-04-28T14:01:03;9.73;;;7.10;;
21107;SDS011;10712;52.944;9.098;2023-04-28T14:03:28;11.82;;;7.20;;
21107;SDS011;10712;52.944;9.098;2023-04-28T14:05:55;13.55;;;7.35;;
21107;SDS011;10712;52.944;9.098;2023-04-28T14:08:23;14.13;;;7.57;;
21107;SDS011;10712;52.944;9.098;2023-04-28T14:10:50;10.45;;;7.38;;
21107;SDS011;10712;52.944;9.098;2023-04-28T14:13:16;10.55;;;6.72;;
21107;SDS011;10712;52.944;9.098;2023-04-28T14:15:43;9.07;;;6.60;;
21107;SDS011;10712;52.944;9.098;2023-04-28T14:18:09;15.40;;;7.72;;
21107;SDS011;10712;52.944;9.098;2023-04-28T14:20:37;11.07;;;6.90;;
21107;SDS011;10712;52.944;9.098;2023-04-28T14:23:03;13.02;;;7.05;;
21107;SDS011;10712;52.944;9.098;2023-04-28T14:25:29;10.30;;;6.80;;
21107;SDS011;10712;52.944;9.098;2023-04-28T14:27:54;11.23;;;5.68;;
21107;SDS011;10712;52.944;9.098;2023-04-28T14:30:20;9.85;;;6.38;;
21107;SDS011;10712;52.944;9.098;2023-04-28T14:32:47;12.27;;;7.05;;
21107;SDS011;10712;52.944;9.098;2023-04-28T14:35:13;9.80;;;6.78;;
21107;SDS011;10712;52.944;9.098;2023-04-28T14:37:40;9.05;;;5.28;;
21107;SDS011;10712;52.944;9.098;2023-04-28T14:40:07;7.50;;;5.68;;
21107;SDS011;10712;52.944;9.098;2023-04-28T14:42:34;11.75;;;5.88;;
21107;SDS011;10712;52.944;9.098;2023-04-28T14:45:05;12.98;;;6.07;;
21107;SDS011;10712;52.944;9.098;2023-04-28T14:50:01;7.45;;;5.47;;
21107;SDS011;10712;52.944;9.098;2023-04-28T14:52:27;8.63;;;5.35;;
21107;SDS011;10712;52.944;9.098;2023-04-28T14:54:54;7.57;;;5.40;;
21107;SDS011;10712;52.944;9.098;2023-04-28T14:57:21;5.22;;;4.72;;
21107;SDS011;10712;52.944;9.098;2023-04-28T14:59:49;8.35;;;5.65;;
21107;SDS011;10712;52.944;9.098;2023-04-28T15:02:16;11.00;;;6.38;;
21107;SDS011;10712;52.944;9.098;2023-04-28T15:04:44;7.10;;;5.63;;
21107;SDS011;10712;52.944;9.098;2023-04-28T15:07:10;9.77;;;5.70;;
21107;SDS011;10712;52.944;9.098;2023-04-28T15:09:36;10.00;;;6.22;;
21107;SDS011;10712;52.944;9.098;2023-04-28T15:12:03;10.20;;;6.00;;
21107;SDS011;10712;52.944;9.098;2023-04-28T15:14:29;13.48;;;6.70;;
21107;SDS011;10712;52.944;9.098;2023-04-28T15:16:55;7.03;;;5.25;;
21107;SDS011;10712;52.944;9.098;2023-04-28T15:19:21;8.27;;;5.93;;
21107;SDS011;10712;52.944;9.098;2023-04-28T15:21:48;7.50;;;5.53;;
21107;SDS011;10712;52.944;9.098;2023-04-28T15:24:15;6.85;;;5.30;;
21107;SDS011;10712;52.944;9.098;2023-04-28T15:26:43;6.72;;;5.22;;
21107;SDS011;10712;52.944;9.098;2023-04-28T15:29:09;6.78;;;4.60;;